createdAt,value
2018-07-02T00:01:46.675Z,86.70
2018-07-02T00:04:51.090Z,87.70
2018-07-02T00:07:55.626Z,87.00
2018-07-02T00:11:00.279Z,87.30
2018-07-02T00:14:04.959Z,86.80
2018-07-02T00:17:09.556Z,86.30
2018-07-02T00:20:15.746Z,89.50
2018-07-02T00:23:20.507Z,88.20
2018-07-02T00:26:25.001Z,88.50
2018-07-02T00:29:29.536Z,88.40
2018-07-02T00:32:34.283Z,90.40
2018-07-02T00:35:38.781Z,89.80
2018-07-02T00:38:43.308Z,90.40
2018-07-02T00:41:47.740Z,90.80
2018-07-02T00:44:52.450Z,90.40
2018-07-02T00:47:56.974Z,91.00
2018-07-02T00:51:01.521Z,90.30
2018-07-02T00:54:06.059Z,91.30
2018-07-02T00:57:10.417Z,90.70
2018-07-02T01:00:16.317Z,92.10
2018-07-02T01:03:20.948Z,91.40
2018-07-02T01:06:25.587Z,91.30
2018-07-02T01:09:30.064Z,91.30
2018-07-02T01:12:34.825Z,91.30
2018-07-02T01:15:39.210Z,90.40
2018-07-02T01:18:51.247Z,90.90
2018-07-02T01:21:55.974Z,91.20
2018-07-02T01:25:00.450Z,91.10
2018-07-02T01:28:04.931Z,91.60
2018-07-02T01:31:09.180Z,91.80
2018-07-02T01:34:13.534Z,91.90
2018-07-02T01:37:17.885Z,91.10
2018-07-02T01:40:22.319Z,92.00
2018-07-02T01:43:26.640Z,91.80
2018-07-02T01:46:31.182Z,92.70
2018-07-02T01:49:35.458Z,93.50
2018-07-02T01:52:39.978Z,92.90
2018-07-02T01:55:44.332Z,93.40
2018-07-02T01:58:48.743Z,94.30
2018-07-02T02:01:53.633Z,94.00
2018-07-02T02:04:58.285Z,94.20
2018-07-02T02:08:03.006Z,94.00
2018-07-02T02:11:07.877Z,94.20
2018-07-02T02:14:12.299Z,93.80
2018-07-02T02:17:16.703Z,94.00
2018-07-02T02:20:21.046Z,93.80
2018-07-02T02:23:25.468Z,93.90
2018-07-02T02:26:30.336Z,94.00
2018-07-02T02:29:34.826Z,94.50
2018-07-02T02:32:40.141Z,94.60
2018-07-02T02:35:45.155Z,95.20
2018-07-02T02:38:49.498Z,95.30
2018-07-02T02:41:54.006Z,95.40
2018-07-02T02:44:58.673Z,95.60
2018-07-02T02:48:03.260Z,95.00
2018-07-02T02:51:07.789Z,95.40
2018-07-02T02:54:12.137Z,95.40
2018-07-02T02:57:16.425Z,95.60
2018-07-02T03:00:21.094Z,95.40
2018-07-02T03:03:25.677Z,95.70
2018-07-02T03:06:31.118Z,95.80
2018-07-02T03:09:36.023Z,94.80
2018-07-02T03:12:40.298Z,95.10
2018-07-02T03:15:44.969Z,94.90
2018-07-02T03:18:55.341Z,95.20
2018-07-02T03:22:00.224Z,96.40
2018-07-02T03:25:04.893Z,96.00
2018-07-02T03:28:09.591Z,96.00
2018-07-02T03:31:14.120Z,95.90
2018-07-02T03:34:18.689Z,96.00
2018-07-02T03:37:23.221Z,96.20
2018-07-02T03:40:28.196Z,95.20
2018-07-02T03:43:33.119Z,95.40
2018-07-02T03:46:37.613Z,95.80
2018-07-02T03:49:42.145Z,95.80
2018-07-02T03:52:47.045Z,95.20
2018-07-02T03:55:51.778Z,95.30
2018-07-02T03:58:56.302Z,95.40
2018-07-02T04:02:01.003Z,95.10
2018-07-02T04:05:05.592Z,95.70
2018-07-02T04:08:10.221Z,95.90
2018-07-02T04:11:14.530Z,96.50
2018-07-02T04:14:19.392Z,95.80
2018-07-02T04:17:23.803Z,95.70
2018-07-02T04:20:28.450Z,95.90
2018-07-02T04:23:33.569Z,96.00
2018-07-02T04:26:39.048Z,95.60
2018-07-02T04:29:43.501Z,95.30
2018-07-02T04:32:47.716Z,95.20
2018-07-02T04:35:51.976Z,95.40
2018-07-02T04:38:56.164Z,95.70
2018-07-02T04:42:00.789Z,94.90
2018-07-02T04:45:05.420Z,95.70
2018-07-02T04:48:09.835Z,96.10
2018-07-02T04:51:14.155Z,95.60
2018-07-02T04:54:18.748Z,94.70
2018-07-02T04:57:23.151Z,94.10
2018-07-02T05:00:27.599Z,94.90
2018-07-02T05:03:32.512Z,93.70
2018-07-02T05:06:36.955Z,93.20
2018-07-02T05:09:42.654Z,93.10
2018-07-02T05:12:47.123Z,93.20
2018-07-02T05:15:51.955Z,93.10
2018-07-02T05:18:56.476Z,92.70
2018-07-02T05:22:01.014Z,93.30
2018-07-02T05:25:05.731Z,92.00
2018-07-02T05:28:10.139Z,92.50
2018-07-02T05:31:14.544Z,92.10
2018-07-02T05:34:19.295Z,92.50
2018-07-02T05:37:24.047Z,91.10
2018-07-02T05:40:28.760Z,91.40
2018-07-02T05:43:34.036Z,91.70
2018-07-02T05:46:38.859Z,90.00
2018-07-02T05:49:43.423Z,87.70
2018-07-02T05:52:48.103Z,86.50
2018-07-02T05:55:52.760Z,86.70
2018-07-02T05:58:57.240Z,85.80
2018-07-02T06:02:01.860Z,83.30
2018-07-02T06:05:06.484Z,83.30
2018-07-02T06:08:11.067Z,80.90
2018-07-02T06:11:15.603Z,75.80
2018-07-02T06:14:20.405Z,68.60
2018-07-02T06:17:25.964Z,61.10
2018-07-02T06:20:32.397Z,57.10
2018-07-02T06:23:39.233Z,51.60
2018-07-02T06:26:44.728Z,49.70
2018-07-02T06:29:49.428Z,45.10
2018-07-02T06:32:54.117Z,43.90
2018-07-02T06:35:58.815Z,41.80
2018-07-02T06:39:03.541Z,41.40
2018-07-02T06:42:10.489Z,39.70
2018-07-02T06:45:15.420Z,38.30
2018-07-02T06:48:19.991Z,35.70
2018-07-02T06:51:24.725Z,35.50
2018-07-02T06:54:29.228Z,37.10
2018-07-02T06:57:34.748Z,37.10
2018-07-02T07:00:39.517Z,37.40
2018-07-02T07:03:45.052Z,36.90
2018-07-02T07:06:49.404Z,34.90
2018-07-02T07:09:53.876Z,34.90
2018-07-02T07:12:58.317Z,32.70
2018-07-02T07:16:02.692Z,34.20
2018-07-02T07:19:07.138Z,33.00
2018-07-02T07:22:11.584Z,33.70
2018-07-02T07:25:16.465Z,36.00
2018-07-02T07:31:24.716Z,32.90
2018-07-02T07:34:29.032Z,32.30
2018-07-02T07:37:33.677Z,31.60
2018-07-02T07:40:38.230Z,32.60
2018-07-02T07:43:42.505Z,31.90
2018-07-02T07:46:46.821Z,33.00
2018-07-02T07:49:51.280Z,32.10
2018-07-02T07:52:55.556Z,33.60
2018-07-02T07:55:59.974Z,31.60
2018-07-02T07:59:04.530Z,33.60
2018-07-02T08:02:08.985Z,33.60
2018-07-02T08:05:13.414Z,34.70
2018-07-02T08:08:17.833Z,33.10
2018-07-02T08:11:22.269Z,32.50
2018-07-02T08:14:26.686Z,31.20
2018-07-02T08:17:31.674Z,31.80
2018-07-02T08:20:36.046Z,31.30
2018-07-02T08:23:40.707Z,30.80
2018-07-02T08:26:45.316Z,31.30
2018-07-02T08:29:49.742Z,31.80
2018-07-02T08:32:54.310Z,30.60
2018-07-02T08:35:58.895Z,29.60
2018-07-02T08:39:04.652Z,32.70
2018-07-02T08:42:09.113Z,30.90
2018-07-02T08:45:14.332Z,31.30
2018-07-02T08:48:18.669Z,29.00
2018-07-02T08:51:22.934Z,32.70
2018-07-02T08:54:27.131Z,30.00
2018-07-02T08:57:32.951Z,30.10
2018-07-02T09:00:37.393Z,29.80
2018-07-02T09:03:41.699Z,29.70
2018-07-02T09:06:46.140Z,28.20
2018-07-02T09:09:50.887Z,29.20
2018-07-02T09:12:55.226Z,30.10
2018-07-02T09:15:59.427Z,31.20
2018-07-02T09:19:03.780Z,30.40
2018-07-02T09:22:08.041Z,30.90
2018-07-02T09:25:12.916Z,29.90
2018-07-02T09:28:17.396Z,31.80
2018-07-02T09:31:22.350Z,32.50
2018-07-02T09:34:26.625Z,32.60
2018-07-02T09:37:31.011Z,32.00
2018-07-02T09:40:35.725Z,32.40
2018-07-02T09:43:40.072Z,32.60
2018-07-02T09:46:44.927Z,34.00
2018-07-02T09:49:49.324Z,33.10
2018-07-02T09:52:53.838Z,31.60
2018-07-02T09:55:58.531Z,32.90
2018-07-02T09:59:02.847Z,32.40
2018-07-02T10:02:07.654Z,31.40
2018-07-02T10:05:12.136Z,31.60
2018-07-02T10:08:16.375Z,32.40
2018-07-02T10:11:20.982Z,31.10
2018-07-02T10:14:25.968Z,30.10
2018-07-02T10:17:31.939Z,32.30
2018-07-02T10:20:36.343Z,31.40
2018-07-02T10:23:40.924Z,30.70
2018-07-02T10:26:45.248Z,30.60
2018-07-02T10:29:49.814Z,31.00
2018-07-02T10:32:53.999Z,32.00
2018-07-02T10:35:59.148Z,33.60
2018-07-02T10:39:04.619Z,31.50
2018-07-02T10:42:09.216Z,32.80
2018-07-02T10:45:13.503Z,30.60
2018-07-02T10:48:17.872Z,31.40
2018-07-02T10:51:22.780Z,33.00
2018-07-02T10:54:27.377Z,33.10
2018-07-02T10:57:31.893Z,32.10
2018-07-02T11:00:36.476Z,31.00
2018-07-02T11:03:40.877Z,31.50
2018-07-02T11:06:45.236Z,32.60
2018-07-02T11:09:49.598Z,34.60
2018-07-02T11:12:54.031Z,32.30
2018-07-02T11:15:58.747Z,31.20
2018-07-02T11:19:03.286Z,33.30
2018-07-02T11:22:07.539Z,33.20
2018-07-02T11:25:11.999Z,33.80
2018-07-02T11:28:16.392Z,33.10
2018-07-02T11:31:20.966Z,32.60
2018-07-02T11:34:25.604Z,33.70
2018-07-02T11:37:29.879Z,34.50
2018-07-02T11:40:34.176Z,33.70
2018-07-02T11:43:38.893Z,35.80
2018-07-02T11:46:43.532Z,36.40
2018-07-02T11:49:48.139Z,36.50
2018-07-02T11:52:52.684Z,38.00
2018-07-02T11:55:57.944Z,36.70
2018-07-02T11:59:02.530Z,38.10
2018-07-02T12:05:10.995Z,39.10
2018-07-02T12:08:15.512Z,38.60
2018-07-02T12:11:20.206Z,37.60
2018-07-02T12:14:24.847Z,37.50
2018-07-02T12:17:29.566Z,39.40
2018-07-02T12:20:34.720Z,38.80
2018-07-02T12:23:39.959Z,40.00
2018-07-02T12:26:44.602Z,40.60
2018-07-02T12:29:49.277Z,40.60
2018-07-02T12:32:53.487Z,39.70
2018-07-02T12:35:57.667Z,39.30
2018-07-02T12:39:02.652Z,39.10
2018-07-02T12:42:07.063Z,39.50
2018-07-02T12:45:11.911Z,38.90
2018-07-02T12:48:16.417Z,38.30
2018-07-02T12:51:21.502Z,38.90
2018-07-02T12:54:26.482Z,38.70
2018-07-02T12:57:31.450Z,38.90
2018-07-02T13:00:36.240Z,37.90
2018-07-02T13:03:40.704Z,37.70
2018-07-02T13:06:45.001Z,37.90
2018-07-02T13:09:49.344Z,36.60
2018-07-02T13:12:54.036Z,37.50
2018-07-02T13:15:58.361Z,38.80
2018-07-02T13:19:02.832Z,38.80
2018-07-02T13:22:07.189Z,39.60
2018-07-02T13:25:11.405Z,39.30
2018-07-02T13:28:15.535Z,39.20
2018-07-02T13:31:19.862Z,38.90
2018-07-02T13:34:24.283Z,37.40
2018-07-02T13:37:28.545Z,37.50
2018-07-02T13:40:33.588Z,38.60
2018-07-02T13:43:38.459Z,38.60
2018-07-02T13:46:42.900Z,39.00
2018-07-02T13:49:47.751Z,38.00
2018-07-02T13:52:52.585Z,37.70
2018-07-02T13:55:57.335Z,38.00
2018-07-02T14:02:06.842Z,37.40
2018-07-02T14:05:11.732Z,37.10
2018-07-02T14:08:16.321Z,35.80
2018-07-02T14:11:20.949Z,36.40
2018-07-02T14:14:25.647Z,36.80
2018-07-02T14:17:30.016Z,37.00
2018-07-02T14:20:34.583Z,36.60
2018-07-02T14:23:38.975Z,37.20
2018-07-02T14:26:43.626Z,37.30
2018-07-02T14:29:47.816Z,36.20
2018-07-02T14:32:52.643Z,36.60
2018-07-02T14:35:57.378Z,35.80
2018-07-02T14:42:06.160Z,34.10
2018-07-02T14:45:10.981Z,34.50
2018-07-02T14:48:15.696Z,33.50
2018-07-02T14:51:20.045Z,33.80
2018-07-02T14:54:24.491Z,33.20
2018-07-02T14:57:29.475Z,33.20
2018-07-02T15:00:34.036Z,33.10
2018-07-02T15:03:38.647Z,32.20
2018-07-02T15:06:43.296Z,32.40
2018-07-02T15:09:48.620Z,32.30
2018-07-02T15:12:53.031Z,31.60
2018-07-02T15:15:57.607Z,31.70
2018-07-02T15:22:05.951Z,32.80
2018-07-02T15:25:11.227Z,32.80
2018-07-02T15:28:15.583Z,32.50
2018-07-02T15:31:20.066Z,32.00
2018-07-02T15:34:24.689Z,31.20
2018-07-02T15:37:29.719Z,30.00
2018-07-02T15:40:34.693Z,30.30
2018-07-02T15:43:39.515Z,30.60
2018-07-02T15:46:43.942Z,30.70
2018-07-02T15:49:48.365Z,29.90
2018-07-02T15:52:52.734Z,30.00
2018-07-02T15:55:57.171Z,29.90
2018-07-02T15:59:01.534Z,29.60
2018-07-02T16:02:05.770Z,30.20
2018-07-02T16:05:10.338Z,30.10
2018-07-02T16:08:14.734Z,30.00
2018-07-02T16:11:19.117Z,29.00
2018-07-02T16:14:23.747Z,29.00
2018-07-02T16:17:28.233Z,29.00
2018-07-02T16:20:33.478Z,29.20
2018-07-02T16:23:37.902Z,28.80
2018-07-02T16:26:42.217Z,29.30
2018-07-02T16:29:46.614Z,28.60
2018-07-02T16:32:50.898Z,29.20
2018-07-02T16:35:55.307Z,30.00
2018-07-02T16:38:59.772Z,30.00
2018-07-02T16:42:04.044Z,30.00
2018-07-02T16:45:08.453Z,29.70
2018-07-02T16:48:13.382Z,29.10
2018-07-02T16:51:17.930Z,29.70
2018-07-02T16:54:22.251Z,29.60
2018-07-02T16:57:26.759Z,29.20
2018-07-02T17:00:31.349Z,29.10
2018-07-02T17:03:35.709Z,29.90
2018-07-02T17:06:40.041Z,29.40
2018-07-02T17:09:44.388Z,29.90
2018-07-02T17:12:48.801Z,29.90
2018-07-02T17:15:53.078Z,30.00
2018-07-02T17:18:57.640Z,29.80
2018-07-02T17:22:02.281Z,30.00
2018-07-02T17:25:06.617Z,30.20
2018-07-02T17:28:11.402Z,30.30
2018-07-02T17:34:19.586Z,30.20
2018-07-02T17:37:23.871Z,30.30
2018-07-02T17:40:28.251Z,30.10
2018-07-02T17:43:32.836Z,30.00
2018-07-02T17:46:37.306Z,30.30
2018-07-02T17:49:41.513Z,30.20
2018-07-02T17:52:45.684Z,30.10
2018-07-02T17:55:50.284Z,30.00
2018-07-02T17:58:54.729Z,29.90
2018-07-02T18:01:58.996Z,30.00
2018-07-02T18:05:03.424Z,30.10
2018-07-02T18:08:07.760Z,30.20
2018-07-02T18:11:12.796Z,30.10
2018-07-02T18:14:18.850Z,29.90
2018-07-02T18:17:23.165Z,30.10
2018-07-02T18:20:29.340Z,30.90
2018-07-02T18:23:34.017Z,30.80
2018-07-02T18:26:38.220Z,31.00
2018-07-02T18:29:42.511Z,31.30
2018-07-02T18:32:47.473Z,31.20
2018-07-02T18:35:51.748Z,31.40
2018-07-02T18:38:56.122Z,31.40
2018-07-02T18:42:00.496Z,31.80
2018-07-02T18:45:05.231Z,31.70
2018-07-02T18:48:09.350Z,31.80
2018-07-02T18:51:14.080Z,32.00
2018-07-02T18:54:18.334Z,32.10
2018-07-02T18:57:23.313Z,32.40
2018-07-02T19:00:29.037Z,32.90
2018-07-02T19:03:33.810Z,32.80
2018-07-02T19:06:38.550Z,33.30
2018-07-02T19:09:42.751Z,33.50
2018-07-02T19:12:47.572Z,33.60
2018-07-02T19:15:52.027Z,33.40
2018-07-02T19:18:57.295Z,33.50
2018-07-02T19:22:01.587Z,33.50
2018-07-02T19:25:06.311Z,34.10
2018-07-02T19:28:10.463Z,35.00
2018-07-02T19:31:14.870Z,35.50
2018-07-02T19:34:19.119Z,36.30
2018-07-02T19:37:23.413Z,35.90
2018-07-02T19:40:27.624Z,36.10
2018-07-02T19:43:31.961Z,36.30
2018-07-02T19:46:36.260Z,36.30
2018-07-02T19:49:40.794Z,36.60
2018-07-02T19:52:44.997Z,37.40
2018-07-02T19:55:49.280Z,38.00
2018-07-02T19:58:53.751Z,38.60
2018-07-02T20:01:58.185Z,38.40
2018-07-02T20:05:03.511Z,38.60
2018-07-02T20:11:12.288Z,41.20
2018-07-02T20:14:16.897Z,43.30
2018-07-02T20:17:21.498Z,43.10
2018-07-02T20:20:25.916Z,44.50
2018-07-02T20:23:30.625Z,44.40
2018-07-02T20:26:35.124Z,44.70
2018-07-02T20:29:39.709Z,45.10
2018-07-02T20:32:44.247Z,46.60
2018-07-02T20:35:48.771Z,46.90
2018-07-02T20:38:53.585Z,46.90
2018-07-02T20:41:58.214Z,46.40
2018-07-02T20:45:02.755Z,46.00
2018-07-02T20:48:07.481Z,49.40
2018-07-02T20:51:12.282Z,50.40
2018-07-02T20:54:17.163Z,48.80
2018-07-02T20:57:21.755Z,48.00
2018-07-02T21:00:29.987Z,49.40
2018-07-02T21:03:34.513Z,49.90
2018-07-02T21:06:39.882Z,50.60
2018-07-02T21:09:44.581Z,52.10
2018-07-02T21:12:49.062Z,53.70
2018-07-02T21:15:53.575Z,54.50
2018-07-02T21:18:58.382Z,53.10
2018-07-02T21:22:02.854Z,53.20
2018-07-02T21:25:08.026Z,51.70
2018-07-02T21:28:12.850Z,54.20
2018-07-02T21:31:17.332Z,55.00
2018-07-02T21:34:21.942Z,55.00
2018-07-02T21:37:26.154Z,53.50
2018-07-02T21:40:31.070Z,54.20
2018-07-02T21:43:36.236Z,52.50
2018-07-02T21:46:40.932Z,55.30
2018-07-02T21:49:45.671Z,53.90
2018-07-02T21:52:50.101Z,54.90
2018-07-02T21:55:54.465Z,54.60
2018-07-02T21:58:59.445Z,55.40
2018-07-02T22:02:03.831Z,56.10
2018-07-02T22:05:09.270Z,58.80
2018-07-02T22:08:14.272Z,58.00
2018-07-02T22:11:25.258Z,58.90
2018-07-02T22:14:29.670Z,57.90
2018-07-02T22:17:34.115Z,59.60
2018-07-02T22:20:38.464Z,59.20
2018-07-02T22:23:42.722Z,59.60
2018-07-02T22:26:47.514Z,59.20
2018-07-02T22:29:51.877Z,59.30
2018-07-02T22:32:56.540Z,61.20
2018-07-02T22:36:01.160Z,60.00
2018-07-02T22:39:08.700Z,61.00
2018-07-02T22:42:13.157Z,62.20
2018-07-02T22:45:17.533Z,62.00
2018-07-02T22:48:22.028Z,62.80
2018-07-02T22:51:26.452Z,62.70
2018-07-02T22:54:31.084Z,63.60
2018-07-02T22:57:35.913Z,64.50
2018-07-02T23:00:40.686Z,65.20
2018-07-02T23:03:45.137Z,63.10
2018-07-02T23:06:49.661Z,65.70
2018-07-02T23:09:54.132Z,64.50
2018-07-02T23:12:58.664Z,65.50
2018-07-02T23:16:04.230Z,66.30
2018-07-02T23:19:08.582Z,67.60
2018-07-02T23:22:12.893Z,68.10
2018-07-02T23:25:17.058Z,69.80
2018-07-02T23:28:21.480Z,71.40
2018-07-02T23:31:26.124Z,70.30
2018-07-02T23:34:30.771Z,69.80
2018-07-02T23:37:35.563Z,71.80
2018-07-02T23:40:40.155Z,70.20
2018-07-02T23:43:44.628Z,72.10
2018-07-02T23:46:48.900Z,72.40
2018-07-02T23:49:53.151Z,72.60
2018-07-02T23:52:57.528Z,71.90
2018-07-02T23:56:01.991Z,72.80
2018-07-02T23:59:06.842Z,73.60
